sensor_id;sensor_type;location;lat;lon;timestamp;P1;durP1;ratioP1;P2;durP2;ratioP2
11653;SDS011;5883;48.818;9.114;2023-09-07T00:00:20;3.17;;;2.88;;
11653;SDS011;5883;48.818;9.114;2023-09-07T00:03:05;3.83;;;2.90;;
11653;SDS011;5883;48.818;9.114;2023-09-07T00:05:51;6.53;;;3.50;;
11653;SDS011;5883;48.818;9.114;2023-09-07T00:08:36;4.63;;;2.80;;
11653;SDS011;5883;48.818;9.114;2023-09-07T00:11:23;3.42;;;2.70;;
11653;SDS011;5883;48.818;9.114;2023-09-07T00:14:07;5.82;;;2.67;;
11653;SDS011;5883;48.818;9.114;2023-09-07T00:16:52;5.43;;;2.97;;
11653;SDS011;5883;48.818;9.114;2023-09-07T00:19:37;4.45;;;2.88;;
11653;SDS011;5883;48.818;9.114;2023-09-07T00:22:22;3.13;;;2.83;;
11653;SDS011;5883;48.818;9.114;2023-09-07T00:25:09;3.83;;;2.63;;
11653;SDS011;5883;48.818;9.114;2023-09-07T00:27:55;3.05;;;2.72;;
11653;SDS011;5883;48.818;9.114;2023-09-07T00:30:40;4.05;;;3.05;;
11653;SDS011;5883;48.818;9.114;2023-09-07T00:33:26;4.30;;;3.00;;
11653;SDS011;5883;48.818;9.114;2023-09-07T00:36:11;3.88;;;3.15;;
11653;SDS011;5883;48.818;9.114;2023-09-07T00:38:56;4.10;;;2.58;;
11653;SDS011;5883;48.818;9.114;2023-09-07T00:41:41;5.78;;;3.10;;
11653;SDS011;5883;48.818;9.114;2023-09-07T00:44:27;2.88;;;2.58;;
11653;SDS011;5883;48.818;9.114;2023-09-07T00:47:12;5.10;;;2.72;;
11653;SDS011;5883;48.818;9.114;2023-09-07T00:49:57;3.78;;;2.95;;
11653;SDS011;5883;48.818;9.114;2023-09-07T00:52:43;3.03;;;2.70;;
11653;SDS011;5883;48.818;9.114;2023-09-07T00:55:28;6.45;;;3.08;;
11653;SDS011;5883;48.818;9.114;2023-09-07T00:58:16;6.45;;;2.80;;
11653;SDS011;5883;48.818;9.114;2023-09-07T01:01:03;3.60;;;2.85;;
11653;SDS011;5883;48.818;9.114;2023-09-07T01:03:48;3.03;;;2.63;;
11653;SDS011;5883;48.818;9.114;2023-09-07T01:06:35;2.83;;;2.53;;
11653;SDS011;5883;48.818;9.114;2023-09-07T01:09:21;5.18;;;2.70;;
11653;SDS011;5883;48.818;9.114;2023-09-07T01:12:13;4.95;;;3.75;;
11653;SDS011;5883;48.818;9.114;2023-09-07T01:14:58;4.47;;;3.15;;
11653;SDS011;5883;48.818;9.114;2023-09-07T01:17:45;3.08;;;2.70;;
11653;SDS011;5883;48.818;9.114;2023-09-07T01:20:31;4.28;;;3.03;;
11653;SDS011;5883;48.818;9.114;2023-09-07T01:23:18;3.53;;;2.83;;
11653;SDS011;5883;48.818;9.114;2023-09-07T01:26:03;4.45;;;2.97;;
11653;SDS011;5883;48.818;9.114;2023-09-07T01:28:48;3.03;;;2.47;;
11653;SDS011;5883;48.818;9.114;2023-09-07T01:31:34;3.35;;;2.70;;
11653;SDS011;5883;48.818;9.114;2023-09-07T01:34:19;6.05;;;3.00;;
11653;SDS011;5883;48.818;9.114;2023-09-07T01:37:04;3.65;;;2.80;;
11653;SDS011;5883;48.818;9.114;2023-09-07T01:39:51;3.20;;;2.80;;
11653;SDS011;5883;48.818;9.114;2023-09-07T01:42:37;4.38;;;2.70;;
11653;SDS011;5883;48.818;9.114;2023-09-07T01:45:22;3.13;;;2.80;;
11653;SDS011;5883;48.818;9.114;2023-09-07T01:48:08;4.25;;;2.95;;
11653;SDS011;5883;48.818;9.114;2023-09-07T01:50:53;3.05;;;2.75;;
11653;SDS011;5883;48.818;9.114;2023-09-07T01:53:39;5.80;;;2.92;;
11653;SDS011;5883;48.818;9.114;2023-09-07T01:56:25;3.90;;;2.97;;
11653;SDS011;5883;48.818;9.114;2023-09-07T01:59:27;3.97;;;2.90;;
11653;SDS011;5883;48.818;9.114;2023-09-07T02:02:12;4.65;;;3.17;;
11653;SDS011;5883;48.818;9.114;2023-09-07T02:04:57;3.35;;;2.88;;
11653;SDS011;5883;48.818;9.114;2023-09-07T02:07:42;4.85;;;3.15;;
11653;SDS011;5883;48.818;9.114;2023-09-07T02:10:27;5.30;;;2.95;;
11653;SDS011;5883;48.818;9.114;2023-09-07T02:13:12;4.22;;;2.88;;
11653;SDS011;5883;48.818;9.114;2023-09-07T02:15:58;3.90;;;2.90;;
11653;SDS011;5883;48.818;9.114;2023-09-07T02:18:48;5.10;;;3.50;;
11653;SDS011;5883;48.818;9.114;2023-09-07T02:21:33;5.72;;;2.95;;
11653;SDS011;5883;48.818;9.114;2023-09-07T02:24:19;3.47;;;3.05;;
11653;SDS011;5883;48.818;9.114;2023-09-07T02:27:03;3.08;;;2.78;;
11653;SDS011;5883;48.818;9.114;2023-09-07T02:29:49;3.15;;;2.83;;
11653;SDS011;5883;48.818;9.114;2023-09-07T02:32:35;4.80;;;3.13;;
11653;SDS011;5883;48.818;9.114;2023-09-07T02:35:20;3.10;;;2.80;;
11653;SDS011;5883;48.818;9.114;2023-09-07T02:38:05;4.35;;;3.00;;
11653;SDS011;5883;48.818;9.114;2023-09-07T02:40:50;6.13;;;3.03;;
11653;SDS011;5883;48.818;9.114;2023-09-07T02:43:35;3.42;;;2.83;;
11653;SDS011;5883;48.818;9.114;2023-09-07T02:46:20;3.58;;;2.92;;
11653;SDS011;5883;48.818;9.114;2023-09-07T02:49:06;3.78;;;3.20;;
11653;SDS011;5883;48.818;9.114;2023-09-07T02:51:51;3.80;;;3.20;;
11653;SDS011;5883;48.818;9.114;2023-09-07T02:54:36;3.92;;;3.10;;
11653;SDS011;5883;48.818;9.114;2023-09-07T02:57:21;4.57;;;2.97;;
11653;SDS011;5883;48.818;9.114;2023-09-07T03:00:07;5.82;;;3.50;;
11653;SDS011;5883;48.818;9.114;2023-09-07T03:02:55;5.75;;;3.20;;
11653;SDS011;5883;48.818;9.114;2023-09-07T03:05:42;4.97;;;3.20;;
11653;SDS011;5883;48.818;9.114;2023-09-07T03:08:27;4.80;;;3.50;;
11653;SDS011;5883;48.818;9.114;2023-09-07T03:11:12;5.55;;;3.47;;
11653;SDS011;5883;48.818;9.114;2023-09-07T03:13:57;5.63;;;3.20;;
11653;SDS011;5883;48.818;9.114;2023-09-07T03:16:42;4.40;;;3.13;;
11653;SDS011;5883;48.818;9.114;2023-09-07T03:19:27;5.35;;;3.45;;
11653;SDS011;5883;48.818;9.114;2023-09-07T03:22:14;6.00;;;3.85;;
11653;SDS011;5883;48.818;9.114;2023-09-07T03:24:59;4.68;;;3.20;;
11653;SDS011;5883;48.818;9.114;2023-09-07T03:27:44;3.25;;;2.95;;
11653;SDS011;5883;48.818;9.114;2023-09-07T03:30:29;3.78;;;3.20;;
11653;SDS011;5883;48.818;9.114;2023-09-07T03:33:14;5.50;;;3.53;;
11653;SDS011;5883;48.818;9.114;2023-09-07T03:35:59;5.05;;;3.38;;
11653;SDS011;5883;48.818;9.114;2023-09-07T03:38:45;4.20;;;3.65;;
11653;SDS011;5883;48.818;9.114;2023-09-07T03:41:31;6.30;;;3.63;;
11653;SDS011;5883;48.818;9.114;2023-09-07T03:44:15;4.43;;;3.45;;
11653;SDS011;5883;48.818;9.114;2023-09-07T03:47:00;6.55;;;3.78;;
11653;SDS011;5883;48.818;9.114;2023-09-07T03:49:47;4.43;;;3.53;;
11653;SDS011;5883;48.818;9.114;2023-09-07T03:52:32;5.05;;;3.33;;
11653;SDS011;5883;48.818;9.114;2023-09-07T03:55:18;3.30;;;3.00;;
11653;SDS011;5883;48.818;9.114;2023-09-07T03:58:03;5.88;;;3.25;;
11653;SDS011;5883;48.818;9.114;2023-09-07T04:00:49;3.33;;;2.92;;
11653;SDS011;5883;48.818;9.114;2023-09-07T04:03:33;4.28;;;3.25;;
11653;SDS011;5883;48.818;9.114;2023-09-07T04:06:18;3.85;;;3.45;;
11653;SDS011;5883;48.818;9.114;2023-09-07T04:09:04;4.03;;;3.65;;
11653;SDS011;5883;48.818;9.114;2023-09-07T04:11:50;4.07;;;3.40;;
11653;SDS011;5883;48.818;9.114;2023-09-07T04:14:35;4.65;;;3.85;;
11653;SDS011;5883;48.818;9.114;2023-09-07T04:17:20;5.57;;;4.00;;
11653;SDS011;5883;48.818;9.114;2023-09-07T04:20:06;4.53;;;3.40;;
11653;SDS011;5883;48.818;9.114;2023-09-07T04:22:51;4.03;;;3.47;;
11653;SDS011;5883;48.818;9.114;2023-09-07T04:25:36;7.07;;;3.70;;
11653;SDS011;5883;48.818;9.114;2023-09-07T04:28:26;4.90;;;3.70;;
11653;SDS011;5883;48.818;9.114;2023-09-07T04:31:11;4.68;;;3.78;;
11653;SDS011;5883;48.818;9.114;2023-09-07T04:33:56;4.38;;;3.67;;
11653;SDS011;5883;48.818;9.114;2023-09-07T04:36:43;5.72;;;4.32;;
11653;SDS011;5883;48.818;9.114;2023-09-07T04:39:29;4.05;;;3.20;;
11653;SDS011;5883;48.818;9.114;2023-09-07T04:42:14;4.10;;;3.70;;
11653;SDS011;5883;48.818;9.114;2023-09-07T04:45:00;4.72;;;3.50;;
11653;SDS011;5883;48.818;9.114;2023-09-07T04:47:45;6.85;;;3.35;;
11653;SDS011;5883;48.818;9.114;2023-09-07T04:50:30;5.18;;;4.03;;
11653;SDS011;5883;48.818;9.114;2023-09-07T04:53:15;4.47;;;3.67;;
11653;SDS011;5883;48.818;9.114;2023-09-07T04:56:01;4.50;;;4.05;;
11653;SDS011;5883;48.818;9.114;2023-09-07T04:58:46;4.57;;;3.35;;
11653;SDS011;5883;48.818;9.114;2023-09-07T05:01:32;4.35;;;3.40;;
11653;SDS011;5883;48.818;9.114;2023-09-07T05:04:17;5.18;;;3.60;;
11653;SDS011;5883;48.818;9.114;2023-09-07T05:07:03;4.22;;;3.55;;
11653;SDS011;5883;48.818;9.114;2023-09-07T05:09:48;4.55;;;3.85;;
11653;SDS011;5883;48.818;9.114;2023-09-07T05:12:33;7.15;;;3.90;;
11653;SDS011;5883;48.818;9.114;2023-09-07T05:15:18;4.38;;;3.95;;
11653;SDS011;5883;48.818;9.114;2023-09-07T05:18:05;11.52;;;5.05;;
11653;SDS011;5883;48.818;9.114;2023-09-07T05:20:50;8.20;;;4.47;;
11653;SDS011;5883;48.818;9.114;2023-09-07T05:23:35;9.95;;;4.05;;
11653;SDS011;5883;48.818;9.114;2023-09-07T05:26:20;5.28;;;3.75;;
11653;SDS011;5883;48.818;9.114;2023-09-07T05:29:06;9.07;;;4.18;;
11653;SDS011;5883;48.818;9.114;2023-09-07T05:31:51;5.03;;;4.18;;
11653;SDS011;5883;48.818;9.114;2023-09-07T05:34:37;5.20;;;4.47;;
11653;SDS011;5883;48.818;9.114;2023-09-07T05:37:23;8.18;;;5.15;;
11653;SDS011;5883;48.818;9.114;2023-09-07T05:40:08;11.93;;;7.30;;
11653;SDS011;5883;48.818;9.114;2023-09-07T05:42:53;12.65;;;7.82;;
11653;SDS011;5883;48.818;9.114;2023-09-07T05:45:40;8.45;;;5.82;;
11653;SDS011;5883;48.818;9.114;2023-09-07T05:48:25;7.72;;;5.53;;
11653;SDS011;5883;48.818;9.114;2023-09-07T05:51:12;11.70;;;5.55;;
11653;SDS011;5883;48.818;9.114;2023-09-07T05:53:57;9.18;;;5.72;;
11653;SDS011;5883;48.818;9.114;2023-09-07T05:56:42;6.40;;;4.60;;
11653;SDS011;5883;48.818;9.114;2023-09-07T05:59:27;5.85;;;4.03;;
11653;SDS011;5883;48.818;9.114;2023-09-07T06:02:12;8.57;;;4.03;;
11653;SDS011;5883;48.818;9.114;2023-09-07T06:04:57;3.85;;;3.35;;
11653;SDS011;5883;48.818;9.114;2023-09-07T06:07:44;5.00;;;3.20;;
11653;SDS011;5883;48.818;9.114;2023-09-07T06:10:29;4.38;;;3.45;;
11653;SDS011;5883;48.818;9.114;2023-09-07T06:13:15;4.22;;;3.15;;
11653;SDS011;5883;48.818;9.114;2023-09-07T06:16:00;5.22;;;3.17;;
11653;SDS011;5883;48.818;9.114;2023-09-07T06:18:45;5.60;;;3.15;;
11653;SDS011;5883;48.818;9.114;2023-09-07T06:21:30;3.65;;;3.08;;
11653;SDS011;5883;48.818;9.114;2023-09-07T06:24:16;5.80;;;2.72;;
11653;SDS011;5883;48.818;9.114;2023-09-07T06:27:01;5.53;;;3.38;;
11653;SDS011;5883;48.818;9.114;2023-09-07T06:29:46;3.58;;;2.75;;
11653;SDS011;5883;48.818;9.114;2023-09-07T06:32:31;5.28;;;2.92;;
11653;SDS011;5883;48.818;9.114;2023-09-07T06:35:17;4.85;;;3.30;;
11653;SDS011;5883;48.818;9.114;2023-09-07T06:38:05;5.85;;;3.53;;
11653;SDS011;5883;48.818;9.114;2023-09-07T06:40:52;3.58;;;2.85;;
11653;SDS011;5883;48.818;9.114;2023-09-07T06:43:37;5.35;;;3.03;;
11653;SDS011;5883;48.818;9.114;2023-09-07T06:46:22;3.45;;;2.60;;
11653;SDS011;5883;48.818;9.114;2023-09-07T06:49:07;4.75;;;2.90;;
11653;SDS011;5883;48.818;9.114;2023-09-07T06:51:52;3.33;;;2.72;;
11653;SDS011;5883;48.818;9.114;2023-09-07T06:54:40;4.30;;;2.65;;
11653;SDS011;5883;48.818;9.114;2023-09-07T06:57:26;3.78;;;2.72;;
11653;SDS011;5883;48.818;9.114;2023-09-07T07:00:12;5.78;;;3.00;;
11653;SDS011;5883;48.818;9.114;2023-09-07T07:02:57;3.20;;;2.33;;
11653;SDS011;5883;48.818;9.114;2023-09-07T07:05:43;4.82;;;2.50;;
11653;SDS011;5883;48.818;9.114;2023-09-07T07:08:28;4.45;;;2.42;;
11653;SDS011;5883;48.818;9.114;2023-09-07T07:11:13;4.38;;;2.80;;
11653;SDS011;5883;48.818;9.114;2023-09-07T07:14:01;3.33;;;2.47;;
11653;SDS011;5883;48.818;9.114;2023-09-07T07:16:46;4.28;;;2.83;;
11653;SDS011;5883;48.818;9.114;2023-09-07T07:19:31;3.47;;;2.70;;
11653;SDS011;5883;48.818;9.114;2023-09-07T07:22:16;3.75;;;2.58;;
11653;SDS011;5883;48.818;9.114;2023-09-07T07:25:01;3.38;;;2.95;;
11653;SDS011;5883;48.818;9.114;2023-09-07T07:27:49;3.90;;;2.53;;
11653;SDS011;5883;48.818;9.114;2023-09-07T07:30:35;10.15;;;3.70;;
11653;SDS011;5883;48.818;9.114;2023-09-07T07:33:21;8.98;;;2.83;;
11653;SDS011;5883;48.818;9.114;2023-09-07T07:36:06;3.03;;;2.33;;
11653;SDS011;5883;48.818;9.114;2023-09-07T07:38:51;7.95;;;3.28;;
11653;SDS011;5883;48.818;9.114;2023-09-07T07:41:36;4.10;;;2.75;;
11653;SDS011;5883;48.818;9.114;2023-09-07T07:44:22;5.72;;;2.78;;
11653;SDS011;5883;48.818;9.114;2023-09-07T07:47:08;5.70;;;2.92;;
11653;SDS011;5883;48.818;9.114;2023-09-07T07:49:53;6.80;;;2.90;;
11653;SDS011;5883;48.818;9.114;2023-09-07T07:52:38;5.32;;;2.58;;
11653;SDS011;5883;48.818;9.114;2023-09-07T07:55:24;5.03;;;2.80;;
11653;SDS011;5883;48.818;9.114;2023-09-07T07:58:09;5.90;;;2.60;;
11653;SDS011;5883;48.818;9.114;2023-09-07T08:00:54;5.25;;;3.13;;
11653;SDS011;5883;48.818;9.114;2023-09-07T08:03:43;4.43;;;3.38;;
11653;SDS011;5883;48.818;9.114;2023-09-07T08:06:28;5.60;;;3.05;;
11653;SDS011;5883;48.818;9.114;2023-09-07T08:09:13;4.13;;;2.40;;
11653;SDS011;5883;48.818;9.114;2023-09-07T08:11:58;4.05;;;2.90;;
11653;SDS011;5883;48.818;9.114;2023-09-07T08:14:46;5.03;;;2.80;;
11653;SDS011;5883;48.818;9.114;2023-09-07T08:17:31;4.65;;;2.70;;
11653;SDS011;5883;48.818;9.114;2023-09-07T08:20:17;3.63;;;2.72;;
11653;SDS011;5883;48.818;9.114;2023-09-07T08:23:02;3.15;;;2.60;;
11653;SDS011;5883;48.818;9.114;2023-09-07T08:25:50;4.78;;;3.03;;
11653;SDS011;5883;48.818;9.114;2023-09-07T08:28:35;4.65;;;2.85;;
11653;SDS011;5883;48.818;9.114;2023-09-07T08:31:20;4.53;;;2.70;;
11653;SDS011;5883;48.818;9.114;2023-09-07T08:34:06;4.38;;;2.72;;
11653;SDS011;5883;48.818;9.114;2023-09-07T08:36:55;4.05;;;2.78;;
11653;SDS011;5883;48.818;9.114;2023-09-07T08:39:43;5.63;;;2.33;;
11653;SDS011;5883;48.818;9.114;2023-09-07T08:42:28;7.45;;;2.85;;
11653;SDS011;5883;48.818;9.114;2023-09-07T08:45:13;3.75;;;3.25;;
11653;SDS011;5883;48.818;9.114;2023-09-07T08:48:00;3.00;;;2.50;;
11653;SDS011;5883;48.818;9.114;2023-09-07T08:50:45;5.03;;;2.90;;
11653;SDS011;5883;48.818;9.114;2023-09-07T08:53:36;3.50;;;2.42;;
11653;SDS011;5883;48.818;9.114;2023-09-07T08:56:22;7.88;;;3.13;;
11653;SDS011;5883;48.818;9.114;2023-09-07T08:59:07;5.65;;;3.25;;
11653;SDS011;5883;48.818;9.114;2023-09-07T09:01:55;4.25;;;2.83;;
11653;SDS011;5883;48.818;9.114;2023-09-07T09:04:41;2.65;;;2.45;;
11653;SDS011;5883;48.818;9.114;2023-09-07T09:07:26;8.70;;;2.60;;
11653;SDS011;5883;48.818;9.114;2023-09-07T09:10:12;3.15;;;2.45;;
11653;SDS011;5883;48.818;9.114;2023-09-07T09:12:57;4.30;;;3.40;;
11653;SDS011;5883;48.818;9.114;2023-09-07T09:15:43;8.15;;;2.95;;
11653;SDS011;5883;48.818;9.114;2023-09-07T09:18:28;4.03;;;2.65;;
11653;SDS011;5883;48.818;9.114;2023-09-07T09:21:14;5.70;;;3.13;;
11653;SDS011;5883;48.818;9.114;2023-09-07T09:23:59;4.72;;;3.13;;
11653;SDS011;5883;48.818;9.114;2023-09-07T09:26:46;4.43;;;3.00;;
11653;SDS011;5883;48.818;9.114;2023-09-07T09:29:32;4.20;;;3.45;;
11653;SDS011;5883;48.818;9.114;2023-09-07T09:32:17;6.05;;;3.17;;
11653;SDS011;5883;48.818;9.114;2023-09-07T09:35:04;4.15;;;3.20;;
11653;SDS011;5883;48.818;9.114;2023-09-07T09:37:49;7.38;;;3.17;;
11653;SDS011;5883;48.818;9.114;2023-09-07T09:40:34;3.28;;;2.97;;
11653;SDS011;5883;48.818;9.114;2023-09-07T09:43:20;4.78;;;3.97;;
11653;SDS011;5883;48.818;9.114;2023-09-07T09:46:09;5.60;;;3.55;;
11653;SDS011;5883;48.818;9.114;2023-09-07T09:48:54;5.03;;;3.25;;
11653;SDS011;5883;48.818;9.114;2023-09-07T09:51:40;4.95;;;3.40;;
11653;SDS011;5883;48.818;9.114;2023-09-07T09:54:27;7.97;;;3.67;;
11653;SDS011;5883;48.818;9.114;2023-09-07T09:57:12;6.30;;;3.33;;
11653;SDS011;5883;48.818;9.114;2023-09-07T09:59:59;6.28;;;3.53;;
11653;SDS011;5883;48.818;9.114;2023-09-07T10:02:51;6.25;;;3.85;;
11653;SDS011;5883;48.818;9.114;2023-09-07T10:05:39;3.83;;;3.38;;
11653;SDS011;5883;48.818;9.114;2023-09-07T10:08:24;7.32;;;3.80;;
11653;SDS011;5883;48.818;9.114;2023-09-07T10:11:09;6.05;;;3.38;;
11653;SDS011;5883;48.818;9.114;2023-09-07T10:13:56;6.10;;;3.00;;
11653;SDS011;5883;48.818;9.114;2023-09-07T10:16:44;7.18;;;3.55;;
11653;SDS011;5883;48.818;9.114;2023-09-07T10:19:29;4.50;;;3.03;;
11653;SDS011;5883;48.818;9.114;2023-09-07T10:22:20;3.90;;;3.33;;
11653;SDS011;5883;48.818;9.114;2023-09-07T10:25:06;4.80;;;3.50;;
11653;SDS011;5883;48.818;9.114;2023-09-07T10:27:56;5.00;;;3.60;;
11653;SDS011;5883;48.818;9.114;2023-09-07T10:30:40;3.80;;;3.30;;
11653;SDS011;5883;48.818;9.114;2023-09-07T10:33:27;8.55;;;3.38;;
11653;SDS011;5883;48.818;9.114;2023-09-07T10:36:20;9.05;;;3.50;;
11653;SDS011;5883;48.818;9.114;2023-09-07T10:39:05;4.55;;;3.55;;
11653;SDS011;5883;48.818;9.114;2023-09-07T10:41:51;4.68;;;3.53;;
11653;SDS011;5883;48.818;9.114;2023-09-07T10:44:36;5.45;;;3.70;;
11653;SDS011;5883;48.818;9.114;2023-09-07T10:47:21;4.32;;;3.40;;
11653;SDS011;5883;48.818;9.114;2023-09-07T10:50:08;4.45;;;3.05;;
11653;SDS011;5883;48.818;9.114;2023-09-07T10:52:54;3.92;;;3.45;;
11653;SDS011;5883;48.818;9.114;2023-09-07T10:55:39;3.53;;;3.17;;
11653;SDS011;5883;48.818;9.114;2023-09-07T10:58:27;6.75;;;3.80;;
11653;SDS011;5883;48.818;9.114;2023-09-07T11:01:12;4.72;;;3.38;;
11653;SDS011;5883;48.818;9.114;2023-09-07T11:03:58;3.42;;;2.97;;
11653;SDS011;5883;48.818;9.114;2023-09-07T11:06:44;4.18;;;3.10;;
11653;SDS011;5883;48.818;9.114;2023-09-07T11:09:29;4.93;;;2.90;;
11653;SDS011;5883;48.818;9.114;2023-09-07T11:12:14;4.07;;;3.67;;
11653;SDS011;5883;48.818;9.114;2023-09-07T11:15:00;5.57;;;3.53;;
11653;SDS011;5883;48.818;9.114;2023-09-07T11:17:46;4.70;;;3.35;;
11653;SDS011;5883;48.818;9.114;2023-09-07T11:20:32;4.45;;;3.10;;
11653;SDS011;5883;48.818;9.114;2023-09-07T11:23:19;3.80;;;3.40;;
11653;SDS011;5883;48.818;9.114;2023-09-07T11:26:04;5.32;;;3.30;;
11653;SDS011;5883;48.818;9.114;2023-09-07T11:28:50;4.30;;;3.40;;
11653;SDS011;5883;48.818;9.114;2023-09-07T11:31:35;4.72;;;3.30;;
11653;SDS011;5883;48.818;9.114;2023-09-07T11:34:23;3.92;;;2.83;;
11653;SDS011;5883;48.818;9.114;2023-09-07T11:37:08;3.10;;;2.80;;
11653;SDS011;5883;48.818;9.114;2023-09-07T11:39:55;7.30;;;3.10;;
11653;SDS011;5883;48.818;9.114;2023-09-07T11:42:40;3.67;;;3.03;;
11653;SDS011;5883;48.818;9.114;2023-09-07T11:45:25;4.47;;;3.10;;
11653;SDS011;5883;48.818;9.114;2023-09-07T11:48:10;3.75;;;3.17;;
11653;SDS011;5883;48.818;9.114;2023-09-07T11:50:55;4.57;;;2.72;;
11653;SDS011;5883;48.818;9.114;2023-09-07T11:53:40;5.55;;;2.58;;
11653;SDS011;5883;48.818;9.114;2023-09-07T11:56:27;5.90;;;2.78;;
11653;SDS011;5883;48.818;9.114;2023-09-07T11:59:12;3.22;;;2.58;;
11653;SDS011;5883;48.818;9.114;2023-09-07T12:01:56;3.47;;;2.88;;
11653;SDS011;5883;48.818;9.114;2023-09-07T12:04:41;3.40;;;3.05;;
11653;SDS011;5883;48.818;9.114;2023-09-07T12:07:26;2.88;;;2.47;;
11653;SDS011;5883;48.818;9.114;2023-09-07T12:10:11;4.47;;;2.92;;
11653;SDS011;5883;48.818;9.114;2023-09-07T12:12:58;3.13;;;2.83;;
11653;SDS011;5883;48.818;9.114;2023-09-07T12:15:43;2.33;;;2.10;;
11653;SDS011;5883;48.818;9.114;2023-09-07T12:18:28;3.88;;;2.63;;
11653;SDS011;5883;48.818;9.114;2023-09-07T12:21:13;4.35;;;3.05;;
11653;SDS011;5883;48.818;9.114;2023-09-07T12:23:58;5.03;;;2.97;;
11653;SDS011;5883;48.818;9.114;2023-09-07T12:26:43;3.28;;;2.40;;
11653;SDS011;5883;48.818;9.114;2023-09-07T12:29:29;3.63;;;2.38;;
11653;SDS011;5883;48.818;9.114;2023-09-07T12:32:14;3.13;;;2.40;;
11653;SDS011;5883;48.818;9.114;2023-09-07T12:34:59;4.95;;;2.90;;
11653;SDS011;5883;48.818;9.114;2023-09-07T12:37:44;3.03;;;2.40;;
11653;SDS011;5883;48.818;9.114;2023-09-07T12:40:29;3.38;;;2.53;;
11653;SDS011;5883;48.818;9.114;2023-09-07T12:43:14;3.08;;;2.70;;
11653;SDS011;5883;48.818;9.114;2023-09-07T12:46:01;3.30;;;2.70;;
11653;SDS011;5883;48.818;9.114;2023-09-07T12:48:46;4.38;;;2.80;;
11653;SDS011;5883;48.818;9.114;2023-09-07T12:51:31;3.55;;;2.53;;
11653;SDS011;5883;48.818;9.114;2023-09-07T12:54:16;5.30;;;2.72;;
11653;SDS011;5883;48.818;9.114;2023-09-07T12:57:02;3.00;;;2.55;;
11653;SDS011;5883;48.818;9.114;2023-09-07T12:59:49;2.45;;;2.20;;
11653;SDS011;5883;48.818;9.114;2023-09-07T13:02:35;2.67;;;2.40;;
11653;SDS011;5883;48.818;9.114;2023-09-07T13:05:21;4.57;;;2.47;;
11653;SDS011;5883;48.818;9.114;2023-09-07T13:08:06;3.10;;;2.80;;
11653;SDS011;5883;48.818;9.114;2023-09-07T13:10:51;2.80;;;2.55;;
11653;SDS011;5883;48.818;9.114;2023-09-07T13:13:36;2.97;;;2.38;;
11653;SDS011;5883;48.818;9.114;2023-09-07T13:16:21;3.20;;;2.50;;
11653;SDS011;5883;48.818;9.114;2023-09-07T13:19:08;3.03;;;2.20;;
11653;SDS011;5883;48.818;9.114;2023-09-07T13:21:54;4.63;;;2.88;;
11653;SDS011;5883;48.818;9.114;2023-09-07T13:24:39;3.63;;;2.80;;
11653;SDS011;5883;48.818;9.114;2023-09-07T13:27:24;5.25;;;2.65;;
11653;SDS011;5883;48.818;9.114;2023-09-07T13:30:10;5.65;;;2.65;;
11653;SDS011;5883;48.818;9.114;2023-09-07T13:32:55;5.50;;;2.17;;
11653;SDS011;5883;48.818;9.114;2023-09-07T13:35:42;5.18;;;2.20;;
11653;SDS011;5883;48.818;9.114;2023-09-07T13:38:27;3.53;;;2.40;;
11653;SDS011;5883;48.818;9.114;2023-09-07T13:41:12;2.80;;;2.20;;
11653;SDS011;5883;48.818;9.114;2023-09-07T13:43:57;3.08;;;2.40;;
11653;SDS011;5883;48.818;9.114;2023-09-07T13:46:42;4.47;;;2.20;;
11653;SDS011;5883;48.818;9.114;2023-09-07T13:49:28;4.25;;;2.10;;
11653;SDS011;5883;48.818;9.114;2023-09-07T13:52:15;3.03;;;2.13;;
11653;SDS011;5883;48.818;9.114;2023-09-07T13:55:00;3.63;;;2.28;;
11653;SDS011;5883;48.818;9.114;2023-09-07T13:57:45;2.97;;;2.38;;
11653;SDS011;5883;48.818;9.114;2023-09-07T14:00:31;3.72;;;2.25;;
11653;SDS011;5883;48.818;9.114;2023-09-07T14:03:16;2.70;;;2.50;;
11653;SDS011;5883;48.818;9.114;2023-09-07T14:06:01;5.20;;;2.42;;
11653;SDS011;5883;48.818;9.114;2023-09-07T14:08:48;3.10;;;2.58;;
11653;SDS011;5883;48.818;9.114;2023-09-07T14:11:34;2.92;;;2.38;;
11653;SDS011;5883;48.818;9.114;2023-09-07T14:14:19;2.80;;;2.15;;
11653;SDS011;5883;48.818;9.114;2023-09-07T14:17:05;2.80;;;2.50;;
11653;SDS011;5883;48.818;9.114;2023-09-07T14:19:50;3.30;;;2.30;;
11653;SDS011;5883;48.818;9.114;2023-09-07T14:22:35;4.25;;;2.35;;
11653;SDS011;5883;48.818;9.114;2023-09-07T14:25:21;3.35;;;2.22;;
11653;SDS011;5883;48.818;9.114;2023-09-07T14:28:07;2.40;;;2.13;;
11653;SDS011;5883;48.818;9.114;2023-09-07T14:30:52;5.30;;;2.35;;
11653;SDS011;5883;48.818;9.114;2023-09-07T14:33:37;3.33;;;2.40;;
11653;SDS011;5883;48.818;9.114;2023-09-07T14:36:25;3.83;;;2.13;;
11653;SDS011;5883;48.818;9.114;2023-09-07T14:39:10;2.28;;;2.08;;
11653;SDS011;5883;48.818;9.114;2023-09-07T14:41:57;2.33;;;2.00;;
11653;SDS011;5883;48.818;9.114;2023-09-07T14:44:45;2.83;;;2.33;;
11653;SDS011;5883;48.818;9.114;2023-09-07T14:47:30;3.58;;;2.08;;
11653;SDS011;5883;48.818;9.114;2023-09-07T14:50:15;3.83;;;2.55;;
11653;SDS011;5883;48.818;9.114;2023-09-07T14:53:00;2.45;;;2.17;;
11653;SDS011;5883;48.818;9.114;2023-09-07T14:55:45;3.22;;;2.10;;
11653;SDS011;5883;48.818;9.114;2023-09-07T14:58:32;2.60;;;2.03;;
11653;SDS011;5883;48.818;9.114;2023-09-07T15:01:17;1.95;;;1.85;;
11653;SDS011;5883;48.818;9.114;2023-09-07T15:04:02;2.50;;;2.10;;
11653;SDS011;5883;48.818;9.114;2023-09-07T15:06:47;4.15;;;2.50;;
11653;SDS011;5883;48.818;9.114;2023-09-07T15:09:32;9.63;;;2.50;;
11653;SDS011;5883;48.818;9.114;2023-09-07T15:12:17;3.35;;;2.55;;
11653;SDS011;5883;48.818;9.114;2023-09-07T15:15:04;4.22;;;2.47;;
11653;SDS011;5883;48.818;9.114;2023-09-07T15:17:49;4.20;;;2.22;;
11653;SDS011;5883;48.818;9.114;2023-09-07T15:20:34;3.85;;;2.25;;
11653;SDS011;5883;48.818;9.114;2023-09-07T15:23:19;2.85;;;2.30;;
11653;SDS011;5883;48.818;9.114;2023-09-07T15:26:04;5.35;;;2.20;;
11653;SDS011;5883;48.818;9.114;2023-09-07T15:28:49;2.40;;;2.17;;
11653;SDS011;5883;48.818;9.114;2023-09-07T15:31:36;3.83;;;2.55;;
11653;SDS011;5883;48.818;9.114;2023-09-07T15:34:21;2.95;;;2.10;;
11653;SDS011;5883;48.818;9.114;2023-09-07T15:37:06;3.13;;;2.30;;
11653;SDS011;5883;48.818;9.114;2023-09-07T15:39:51;5.97;;;2.03;;
11653;SDS011;5883;48.818;9.114;2023-09-07T15:42:36;2.60;;;2.28;;
11653;SDS011;5883;48.818;9.114;2023-09-07T15:45:21;4.80;;;2.40;;
11653;SDS011;5883;48.818;9.114;2023-09-07T15:48:08;2.45;;;1.90;;
11653;SDS011;5883;48.818;9.114;2023-09-07T15:50:53;3.00;;;2.00;;
11653;SDS011;5883;48.818;9.114;2023-09-07T15:53:38;3.25;;;2.25;;
11653;SDS011;5883;48.818;9.114;2023-09-07T15:56:23;4.13;;;2.65;;
11653;SDS011;5883;48.818;9.114;2023-09-07T15:59:08;7.00;;;2.83;;
11653;SDS011;5883;48.818;9.114;2023-09-07T16:01:55;2.92;;;2.22;;
11653;SDS011;5883;48.818;9.114;2023-09-07T16:04:41;2.65;;;2.45;;
11653;SDS011;5883;48.818;9.114;2023-09-07T16:07:26;3.67;;;2.30;;
11653;SDS011;5883;48.818;9.114;2023-09-07T16:10:11;4.63;;;2.10;;
11653;SDS011;5883;48.818;9.114;2023-09-07T16:12:56;2.55;;;2.22;;
11653;SDS011;5883;48.818;9.114;2023-09-07T16:15:42;2.45;;;2.25;;
11653;SDS011;5883;48.818;9.114;2023-09-07T16:18:27;4.05;;;2.10;;
11653;SDS011;5883;48.818;9.114;2023-09-07T16:21:14;3.30;;;2.33;;
11653;SDS011;5883;48.818;9.114;2023-09-07T16:24:03;4.05;;;2.38;;
11653;SDS011;5883;48.818;9.114;2023-09-07T16:26:48;3.30;;;2.17;;
11653;SDS011;5883;48.818;9.114;2023-09-07T16:29:33;5.10;;;2.70;;
11653;SDS011;5883;48.818;9.114;2023-09-07T16:32:18;3.53;;;2.70;;
11653;SDS011;5883;48.818;9.114;2023-09-07T16:35:03;5.30;;;2.72;;
11653;SDS011;5883;48.818;9.114;2023-09-07T16:37:50;2.60;;;2.20;;
11653;SDS011;5883;48.818;9.114;2023-09-07T16:40:35;2.45;;;2.17;;
11653;SDS011;5883;48.818;9.114;2023-09-07T16:43:21;2.85;;;2.47;;
11653;SDS011;5883;48.818;9.114;2023-09-07T16:46:07;4.00;;;2.30;;
11653;SDS011;5883;48.818;9.114;2023-09-07T16:48:52;5.03;;;2.40;;
11653;SDS011;5883;48.818;9.114;2023-09-07T16:51:38;2.83;;;2.53;;